Time;durP1;ratioP1;P1;durP2;ratioP2;P2;SDS_P1;SDS_P2;PMS_P1;PMS_P2;Temp;Humidity;BMP_temperature;BMP_pressure;BME280_temperature;BME280_humidity;BME280_pressure;Samples;Min_cycle;Max_cycle;Signal;HPM_P1;HPM_P2
2023/01/13 00:00:13;;;;;;;66.47;9.63;;;11.60;99.90;;;;;;6216689;23;20149;-88
2023/01/13 00:02:48;;;;;;;65.05;8.70;;;11.70;99.90;;;;;;6216629;23;20194;-89
2023/01/13 00:05:14;;;;;;;65.40;9.48;;;11.70;99.90;;;;;;6217510;23;20152;-89
2023/01/13 00:07:42;;;;;;;65.77;9.67;;;11.70;99.90;;;;;;6218100;23;20188;-88
2023/01/13 00:10:10;;;;;;;64.80;8.75;;;11.70;99.90;;;;;;6218096;23;20149;-87
2023/01/13 00:12:44;;;;;;;65.13;8.25;;;11.80;99.90;;;;;;6218613;23;20136;-88
2023/01/13 00:15:10;;;;;;;64.43;7.05;;;11.80;99.90;;;;;;6218186;23;20175;-88
2023/01/13 00:17:37;;;;;;;64.97;8.43;;;11.80;99.90;;;;;;6219743;23;20176;-87
2023/01/13 00:20:03;;;;;;;66.07;9.23;;;11.80;99.90;;;;;;6218654;23;20447;-88
2023/01/13 00:22:33;;;;;;;65.50;8.65;;;11.70;99.90;;;;;;6218514;23;20141;-87
2023/01/13 00:25:00;;;;;;;65.78;8.70;;;11.70;99.90;;;;;;6221379;23;20172;-87
2023/01/13 00:27:26;;;;;;;65.68;9.35;;;11.70;99.90;;;;;;6219218;23;20165;-87
2023/01/13 00:29:52;;;;;;;64.72;8.27;;;11.70;99.90;;;;;;6220233;23;20447;-88
2023/01/13 00:32:18;;;;;;;65.77;9.60;;;11.70;99.90;;;;;;6218491;23;20152;-88
2023/01/13 00:34:43;;;;;;;64.80;7.73;;;11.70;99.90;;;;;;6218682;23;20159;-88
2023/01/13 00:37:11;;;;;;;64.33;6.90;;;11.80;99.90;;;;;;6220440;23;20575;-87
2023/01/13 00:39:37;;;;;;;65.80;8.55;;;11.80;99.90;;;;;;6219651;23;20145;-88
2023/01/13 00:44:47;;;;;;;64.78;7.43;;;11.70;99.90;;;;;;6220007;23;20218;-88
2023/01/13 00:47:13;;;;;;;67.07;7.80;;;11.70;99.90;;;;;;6219059;23;20165;-88
2023/01/13 00:49:38;;;;;;;65.27;8.30;;;11.70;99.90;;;;;;6219506;23;20149;-88
2023/01/13 00:52:07;;;;;;;64.30;8.20;;;11.70;99.90;;;;;;6218448;23;20144;-88
2023/01/13 00:54:33;;;;;;;63.83;5.88;;;11.60;99.90;;;;;;6220786;23;20590;-88
2023/01/13 00:56:59;;;;;;;64.40;4.87;;;11.60;99.90;;;;;;6219407;23;20254;-88
2023/01/13 00:59:24;;;;;;;64.00;5.47;;;11.60;99.90;;;;;;6221195;23;20141;-88
2023/01/13 01:01:50;;;;;;;64.70;6.77;;;11.60;99.90;;;;;;6220155;23;20374;-87
2023/01/13 01:04:16;;;;;;;64.10;5.03;;;11.50;99.90;;;;;;6219492;23;20155;-87
2023/01/13 01:06:45;;;;;;;66.00;6.53;;;11.50;99.90;;;;;;6219708;23;20188;-87
2023/01/13 01:09:14;;;;;;;63.83;4.88;;;11.40;99.90;;;;;;6219513;23;20364;-87
2023/01/13 01:11:40;;;;;;;63.75;4.20;;;11.40;99.90;;;;;;6220283;23;20158;-87
2023/01/13 01:14:12;;;;;;;65.57;6.80;;;11.40;99.90;;;;;;6220028;23;20136;-87
2023/01/13 01:16:39;;;;;;;64.50;6.68;;;11.30;99.90;;;;;;6219110;23;20164;-87
2023/01/13 01:19:06;;;;;;;66.25;7.15;;;11.30;99.90;;;;;;6219297;23;20137;-87
2023/01/13 01:21:32;;;;;;;65.65;6.28;;;11.30;99.90;;;;;;6218898;23;20145;-86
2023/01/13 01:24:00;;;;;;;64.65;5.55;;;11.30;99.90;;;;;;6220078;23;20160;-86
2023/01/13 01:26:31;;;;;;;67.00;5.95;;;11.30;99.90;;;;;;6219303;23;20227;-86
2023/01/13 01:28:57;;;;;;;64.78;4.00;;;11.30;96.00;;;;;;6220103;23;20125;-86
2023/01/13 01:31:25;;;;;;;63.88;3.72;;;11.20;93.80;;;;;;6220979;23;20216;-90
2023/01/13 01:33:52;;;;;;;67.90;5.93;;;11.20;85.70;;;;;;6220069;23;20198;-87
2023/01/13 01:36:19;;;;;;;65.38;4.72;;;11.20;70.00;;;;;;6220306;23;20504;-87
2023/01/13 01:38:45;;;;;;;66.78;4.70;;;11.20;68.20;;;;;;6220048;23;20152;-88
2023/01/13 01:41:18;;;;;;;66.00;5.68;;;11.20;71.50;;;;;;6220513;23;20140;-88
2023/01/13 01:43:58;;;;;;;67.78;5.35;;;11.20;58.90;;;;;;6192913;23;20152;-88
2023/01/13 01:46:35;;;;;;;65.38;5.20;;;11.10;62.00;;;;;;6219124;23;20235;-88
2023/01/13 01:49:28;;;;;;;65.30;5.43;;;11.10;61.40;;;;;;6219187;23;20133;-89
2023/01/13 01:52:09;;;;;;;65.53;6.15;;;10.90;71.70;;;;;;6210099;23;20451;-88
2023/01/13 01:54:46;;;;;;;66.70;5.78;;;10.80;78.10;;;;;;6219455;23;20133;-88
2023/01/13 01:57:20;;;;;;;65.53;4.75;;;10.70;88.40;;;;;;6216375;23;20179;-88
2023/01/13 01:59:48;;;;;;;64.60;4.32;;;10.60;91.30;;;;;;6217592;23;20510;-88
2023/01/13 02:02:14;;;;;;;65.60;5.22;;;10.50;96.00;;;;;;6216196;23;20153;-88
2023/01/13 02:04:49;;;;;;;67.13;6.47;;;10.40;98.00;;;;;;6217952;23;20172;-87
2023/01/13 02:07:43;;;;;;;67.10;7.03;;;10.40;99.90;;;;;;6216925;23;20648;-87
2023/01/13 02:10:12;;;;;;;66.57;5.45;;;10.30;99.90;;;;;;6212938;23;20148;-87
2023/01/13 02:12:43;;;;;;;65.57;6.35;;;10.20;99.90;;;;;;6218161;23;20175;-87
2023/01/13 02:15:13;;;;;;;65.95;7.30;;;10.20;99.90;;;;;;6216706;23;20133;-88
2023/01/13 02:18:00;;;;;;;65.53;7.30;;;10.10;99.90;;;;;;6216529;23;20707;-87
2023/01/13 02:20:57;;;;;;;68.18;10.38;;;10.20;99.90;;;;;;6218873;23;20224;-87
2023/01/13 02:26:57;;;;;;;65.53;4.72;;;10.20;99.90;;;;;;6218124;23;20191;-87
2023/01/13 02:32:43;;;;;;;69.82;4.90;;;10.20;99.90;;;;;;6218251;23;20652;-86
2023/01/13 02:35:29;;;;;;;66.35;6.40;;;10.20;99.90;;;;;;6218616;23;20190;-86
2023/01/13 02:37:57;;;;;;;65.07;6.20;;;10.20;99.90;;;;;;6219367;23;20539;-87
2023/01/13 02:40:35;;;;;;;68.43;5.95;;;10.20;99.90;;;;;;6193864;23;20505;-87
2023/01/13 02:46:09;;;;;;;64.88;3.90;;;10.20;95.60;;;;;;6219265;23;20187;-87
2023/01/13 02:48:37;;;;;;;69.60;4.80;;;10.20;92.20;;;;;;6219513;23;20155;-86
2023/01/13 02:51:11;;;;;;;67.50;5.72;;;10.20;82.10;;;;;;6219054;23;20171;-86
2023/01/13 02:54:06;;;;;;;68.47;6.28;;;10.20;81.50;;;;;;6219666;23;20220;-86
2023/01/13 02:56:37;;;;;;;68.38;6.53;;;10.10;60.50;;;;;;6198004;23;20173;-86
2023/01/13 02:59:04;;;;;;;67.63;7.90;;;10.20;63.10;;;;;;6221038;23;20183;-86
2023/01/13 03:01:30;;;;;;;66.15;7.43;;;10.10;62.50;;;;;;6221586;23;20160;-86
2023/01/13 03:03:55;;;;;;;67.67;8.80;;;10.00;58.10;;;;;;6219760;23;20144;-86
2023/01/13 03:06:33;;;;;;;66.70;8.23;;;10.00;57.80;;;;;;6220436;23;20176;-89
2023/01/13 03:09:06;;;;;;;66.45;8.23;;;10.00;50.80;;;;;;6221222;23;20470;-88
2023/01/13 03:11:55;;;;;;;66.32;6.07;;;10.00;54.30;;;;;;6218619;23;20132;-87
2023/01/13 03:14:49;;;;;;;65.80;6.20;;;10.10;49.90;;;;;;6219583;23;20144;-88
2023/01/13 03:17:36;;;;;;;66.18;7.43;;;10.10;50.90;;;;;;6221050;23;20184;-87
2023/01/13 03:20:22;;;;;;;70.00;8.88;;;9.80;54.70;;;;;;6220646;23;20132;-87
2023/01/13 03:23:06;;;;;;;67.97;8.52;;;9.90;59.70;;;;;;6220808;23;20139;-87
2023/01/13 03:25:37;;;;;;;67.35;9.15;;;9.90;66.40;;;;;;6221292;23;20178;-89
2023/01/13 03:28:07;;;;;;;68.25;6.82;;;9.90;58.40;;;;;;6223556;23;20127;-87
2023/01/13 03:30:42;;;;;;;69.15;7.20;;;9.90;72.00;;;;;;6222121;23;20196;-87
2023/01/13 03:33:18;;;;;;;67.60;7.70;;;9.80;69.20;;;;;;6223053;23;20131;-87
2023/01/13 03:35:51;;;;;;;70.10;9.65;;;9.80;71.10;;;;;;6223350;23;20160;-87
2023/01/13 03:38:31;;;;;;;67.60;8.50;;;9.90;65.90;;;;;;6223845;23;20139;-87
2023/01/13 03:41:04;;;;;;;68.35;8.55;;;9.80;59.30;;;;;;6221831;23;20195;-87
2023/01/13 03:46:52;;;;;;;70.13;9.10;;;9.80;64.50;;;;;;6222577;23;20199;-87
2023/01/13 03:49:24;;;;;;;69.30;9.65;;;9.80;73.70;;;;;;6222544;23;20195;-87
2023/01/13 03:51:57;;;;;;;68.57;7.35;;;9.80;82.00;;;;;;6220501;23;20163;-87
2023/01/13 03:54:26;;;;;;;69.03;7.18;;;9.80;79.60;;;;;;6221557;23;20132;-88
2023/01/13 03:56:59;;;;;;;68.35;7.03;;;9.70;73.80;;;;;;6221506;23;20161;-87
2023/01/13 03:59:37;;;;;;;72.93;6.75;;;9.60;77.30;;;;;;6223311;23;20172;-87
2023/01/13 04:02:12;;;;;;;71.68;7.50;;;9.70;81.10;;;;;;6221318;23;20188;-88
2023/01/13 04:05:02;;;;;;;68.70;7.00;;;9.80;75.00;;;;;;6223269;23;20231;-87
2023/01/13 04:07:47;;;;;;;70.20;6.88;;;9.80;77.30;;;;;;6222035;23;20165;-87
2023/01/13 04:10:18;;;;;;;71.68;7.28;;;9.80;78.40;;;;;;6221686;23;20144;-87
2023/01/13 04:13:00;;;;;;;73.10;8.80;;;9.80;72.70;;;;;;6222413;23;20172;-87
2023/01/13 04:15:30;;;;;;;71.15;7.57;;;9.80;77.70;;;;;;6222380;23;20148;-87
2023/01/13 04:18:25;;;;;;;72.82;10.48;;;9.70;76.90;;;;;;6223802;23;20148;-88
2023/01/13 04:20:53;;;;;;;77.20;7.28;;;9.80;76.20;;;;;;6221510;23;20152;-88
2023/01/13 04:23:20;;;;;;;71.47;9.10;;;9.80;74.40;;;;;;6223693;23;20167;-87
2023/01/13 04:25:47;;;;;;;72.57;8.07;;;9.60;77.80;;;;;;6223399;23;20565;-87
2023/01/13 04:28:14;;;;;;;83.15;8.70;;;9.60;82.40;;;;;;6223934;23;20220;-87
2023/01/13 04:30:40;;;;;;;72.47;9.27;;;9.60;76.20;;;;;;6223020;23;20148;-87
2023/01/13 04:33:06;;;;;;;75.13;8.30;;;9.60;84.60;;;;;;6224214;23;20191;-88
2023/01/13 04:35:33;;;;;;;68.93;5.80;;;9.50;86.90;;;;;;6224303;23;20207;-87
2023/01/13 04:38:08;;;;;;;74.97;6.95;;;9.20;89.50;;;;;;6224590;23;20287;-87
2023/01/13 04:40:33;;;;;;;72.13;6.43;;;9.20;90.80;;;;;;6225416;23;20132;-87
2023/01/13 04:42:59;;;;;;;69.50;5.97;;;9.20;92.40;;;;;;6223891;23;20227;-87
2023/01/13 04:45:25;;;;;;;73.33;6.93;;;9.10;94.10;;;;;;6221378;23;20626;-87
2023/01/13 04:47:51;;;;;;;75.17;7.20;;;9.20;92.80;;;;;;6223263;23;20367;-87
2023/01/13 04:50:18;;;;;;;74.97;7.67;;;9.30;92.00;;;;;;6221021;23;20151;-89
2023/01/13 04:52:48;;;;;;;81.35;8.00;;;9.20;89.20;;;;;;6223348;23;20211;-87
2023/01/13 04:55:14;;;;;;;76.82;7.45;;;9.20;90.20;;;;;;6222154;23;20157;-87
2023/01/13 04:57:40;;;;;;;79.10;7.80;;;9.20;88.80;;;;;;6223492;23;20160;-88
2023/01/13 05:00:08;;;;;;;76.17;6.27;;;9.20;92.30;;;;;;6222834;23;20140;-88
2023/01/13 05:02:34;;;;;;;75.32;6.70;;;9.20;91.20;;;;;;6221542;23;20387;-87
2023/01/13 05:04:59;;;;;;;73.33;7.90;;;9.20;90.90;;;;;;6223433;23;20226;-88
2023/01/13 05:07:26;;;;;;;77.13;8.10;;;9.20;87.90;;;;;;6221058;23;20618;-89
2023/01/13 05:09:51;;;;;;;74.45;7.00;;;9.20;85.30;;;;;;6221923;23;20367;-88
2023/01/13 05:17:47;;;;;;;74.30;8.50;;;9.30;82.70;;;;;;6221276;23;20179;-88
2023/01/13 05:20:13;;;;;;;71.68;6.65;;;9.30;82.90;;;;;;6221791;23;20149;-87
2023/01/13 05:25:24;;;;;;;75.13;7.03;;;9.10;86.10;;;;;;6223285;23;20163;-87
2023/01/13 05:27:54;;;;;;;72.45;7.13;;;9.10;90.90;;;;;;6223618;23;20140;-88
2023/01/13 05:30:22;;;;;;;71.57;6.82;;;9.10;90.10;;;;;;6221715;23;20545;-88
2023/01/13 05:32:48;;;;;;;69.13;7.25;;;9.00;90.00;;;;;;6222397;23;20140;-87
2023/01/13 05:35:14;;;;;;;68.80;6.50;;;9.00;88.90;;;;;;6221317;23;20149;-87
2023/01/13 05:37:42;;;;;;;78.88;7.70;;;9.10;84.70;;;;;;6221273;23;20425;-87
2023/01/13 05:43:18;;;;;;;73.35;5.78;;;9.00;86.60;;;;;;6222780;23;20139;-88
2023/01/13 05:46:03;;;;;;;74.00;8.32;;;9.10;83.40;;;;;;6222455;23;20568;-88
2023/01/13 05:48:40;;;;;;;72.03;6.05;;;9.10;87.20;;;;;;6223006;23;20125;-87
2023/01/13 05:51:08;;;;;;;84.30;7.95;;;9.10;80.20;;;;;;6221023;23;20121;-88
2023/01/13 05:53:34;;;;;;;76.43;6.95;;;9.10;78.20;;;;;;6220616;23;20144;-87
2023/01/13 05:56:04;;;;;;;73.05;7.05;;;9.20;78.40;;;;;;6220513;23;20195;-87
2023/01/13 05:58:30;;;;;;;71.95;6.57;;;9.30;74.20;;;;;;6221047;23;20154;-87
2023/01/13 06:01:04;;;;;;;70.00;6.93;;;9.30;70.60;;;;;;6220556;23;20149;-88
2023/01/13 06:03:30;;;;;;;66.40;4.90;;;9.30;73.00;;;;;;6221439;23;20393;-87
2023/01/13 06:05:58;;;;;;;72.77;7.33;;;9.40;69.60;;;;;;6220096;23;20204;-87
2023/01/13 06:08:24;;;;;;;70.47;6.68;;;9.30;70.20;;;;;;6222434;23;20143;-89
2023/01/13 06:10:49;;;;;;;67.17;5.33;;;9.30;70.00;;;;;;6221730;23;20577;-88
2023/01/13 06:13:15;;;;;;;69.27;6.30;;;9.30;71.30;;;;;;6221441;23;20374;-87
2023/01/13 06:15:41;;;;;;;68.50;6.00;;;9.30;70.50;;;;;;6222788;23;20210;-87
2023/01/13 06:18:06;;;;;;;67.40;6.80;;;9.30;71.20;;;;;;6221850;23;20144;-87
2023/01/13 06:20:32;;;;;;;73.97;6.20;;;9.30;72.60;;;;;;6219454;23;20159;-88
2023/01/13 06:22:59;;;;;;;69.30;7.20;;;9.30;74.40;;;;;;6221570;23;20140;-87
2023/01/13 06:25:31;;;;;;;69.85;7.03;;;9.30;74.50;;;;;;6220960;23;20876;-87
2023/01/13 06:27:58;;;;;;;73.25;8.15;;;9.30;75.30;;;;;;6221528;23;20141;-87
2023/01/13 06:30:28;;;;;;;69.88;10.13;;;9.30;73.60;;;;;;6219557;23;20145;-87
2023/01/13 06:32:58;;;;;;;86.38;9.32;;;9.30;75.90;;;;;;6221462;23;20216;-87
2023/01/13 06:35:31;;;;;;;68.03;6.85;;;9.30;80.90;;;;;;6220450;23;20141;-89
2023/01/13 06:37:59;;;;;;;69.63;7.82;;;9.30;79.40;;;;;;6221786;23;20183;-87
2023/01/13 06:40:25;;;;;;;69.55;8.20;;;9.30;76.50;;;;;;6222048;23;20612;-87
2023/01/13 06:45:38;;;;;;;69.32;6.05;;;9.40;76.60;;;;;;6221041;23;20537;-88
2023/01/13 06:48:04;;;;;;;71.17;6.43;;;9.30;70.80;;;;;;6222452;23;20145;-87
2023/01/13 06:50:30;;;;;;;68.78;5.75;;;9.30;70.10;;;;;;6223220;23;20367;-87
2023/01/13 06:52:55;;;;;;;70.50;5.80;;;9.30;71.00;;;;;;6222530;23;20148;-86
2023/01/13 06:55:21;;;;;;;65.17;5.00;;;9.30;68.40;;;;;;6221566;23;20148;-87
2023/01/13 06:57:52;;;;;;;69.63;6.13;;;9.30;67.60;;;;;;6221983;23;20218;-87
2023/01/13 07:00:18;;;;;;;67.65;8.70;;;9.30;67.10;;;;;;6221134;23;20486;-88
2023/01/13 07:02:44;;;;;;;77.28;5.82;;;9.40;65.40;;;;;;6222413;23;20148;-88
2023/01/13 07:05:10;;;;;;;72.20;6.70;;;9.30;68.40;;;;;;6222175;23;20175;-88
2023/01/13 07:07:36;;;;;;;66.50;6.25;;;9.30;65.60;;;;;;6220535;23;20243;-87
2023/01/13 07:10:02;;;;;;;67.80;5.40;;;9.40;63.90;;;;;;6223274;23;20140;-89
2023/01/13 07:12:28;;;;;;;67.28;5.30;;;9.30;68.20;;;;;;6221303;23;20148;-88
2023/01/13 07:17:38;;;;;;;68.65;5.45;;;9.30;67.50;;;;;;6222310;23;20171;-89
2023/01/13 07:20:04;;;;;;;70.93;7.23;;;9.30;64.90;;;;;;6222257;23;20141;-88
2023/01/13 07:22:30;;;;;;;70.68;6.60;;;9.30;61.50;;;;;;6221767;23;20371;-86
2023/01/13 07:24:56;;;;;;;65.50;5.70;;;9.30;61.90;;;;;;6220887;23;20695;-88
2023/01/13 07:27:22;;;;;;;66.95;6.07;;;9.30;63.40;;;;;;6222759;23;20203;-88
2023/01/13 07:29:48;;;;;;;68.70;7.00;;;9.20;61.40;;;;;;6221557;23;20141;-88
2023/01/13 07:32:14;;;;;;;68.80;8.20;;;9.20;60.00;;;;;;6219199;23;20153;-87
2023/01/13 07:34:40;;;;;;;66.22;7.20;;;9.20;60.20;;;;;;6222291;23;20601;-88
2023/01/13 07:37:05;;;;;;;69.97;7.30;;;9.20;60.90;;;;;;6220868;23;20271;-88
2023/01/13 07:39:31;;;;;;;68.07;6.60;;;9.10;62.80;;;;;;6222960;23;20150;-87
2023/01/13 07:44:41;;;;;;;70.82;5.90;;;9.00;74.30;;;;;;6225421;23;20489;-87
2023/01/13 07:47:09;;;;;;;67.30;7.47;;;9.00;77.10;;;;;;6226402;23;20157;-88
2023/01/13 07:49:35;;;;;;;66.18;6.88;;;8.90;86.50;;;;;;6223520;23;20155;-89
2023/01/13 07:52:01;;;;;;;70.90;7.85;;;8.90;86.40;;;;;;6222054;23;20149;-86
2023/01/13 07:54:27;;;;;;;66.28;7.53;;;8.80;90.90;;;;;;6224744;23;20182;-88
2023/01/13 07:56:55;;;;;;;68.17;7.50;;;8.80;89.30;;;;;;6224036;23;20610;-88
2023/01/13 07:59:21;;;;;;;68.60;7.00;;;8.70;91.20;;;;;;6225546;23;20141;-87
2023/01/13 08:01:47;;;;;;;67.88;8.10;;;8.70;91.70;;;;;;6224486;23;20481;-89
2023/01/13 08:04:13;;;;;;;70.80;7.60;;;8.70;93.90;;;;;;6222423;23;20140;-87
2023/01/13 08:06:40;;;;;;;67.90;8.20;;;8.60;96.90;;;;;;6221068;23;20263;-88
2023/01/13 08:09:06;;;;;;;65.72;5.97;;;8.60;97.00;;;;;;6224110;23;20474;-88
2023/01/13 08:11:31;;;;;;;68.97;9.83;;;8.70;96.40;;;;;;6221714;23;20145;-87
2023/01/13 08:13:57;;;;;;;72.70;8.70;;;8.60;97.80;;;;;;6223354;23;20137;-88
2023/01/13 08:16:23;;;;;;;65.97;6.97;;;8.60;98.30;;;;;;6220925;23;20169;-88
2023/01/13 08:18:48;;;;;;;66.93;7.83;;;8.60;99.90;;;;;;6223241;23;20145;-87
2023/01/13 08:21:14;;;;;;;69.87;9.90;;;8.60;99.80;;;;;;6222623;23;20140;-89
2023/01/13 08:23:42;;;;;;;69.25;10.10;;;8.60;99.90;;;;;;6223038;23;20195;-89
2023/01/13 08:26:13;;;;;;;75.35;12.20;;;8.60;99.90;;;;;;6222375;23;20172;-87
2023/01/13 08:28:39;;;;;;;76.03;8.13;;;8.60;99.90;;;;;;6221741;23;20513;-87
2023/01/13 08:31:11;;;;;;;69.43;10.27;;;8.70;99.90;;;;;;6220400;23;20168;-88
2023/01/13 08:33:37;;;;;;;69.55;8.77;;;8.60;99.90;;;;;;6220136;23;20192;-88
2023/01/13 08:36:08;;;;;;;74.67;9.13;;;8.70;98.60;;;;;;6220520;23;20175;-87
2023/01/13 08:38:34;;;;;;;72.10;6.78;;;8.70;97.70;;;;;;6222228;23;20351;-87
2023/01/13 08:41:07;;;;;;;70.93;7.32;;;8.80;96.30;;;;;;6221059;23;20144;-88
2023/01/13 08:43:33;;;;;;;73.32;5.85;;;8.80;94.50;;;;;;6220543;23;20667;-88
2023/01/13 08:46:03;;;;;;;71.33;7.23;;;8.90;93.30;;;;;;6220363;23;20215;-88
2023/01/13 08:48:29;;;;;;;77.30;7.30;;;9.00;91.40;;;;;;6220527;23;20478;-88
2023/01/13 08:51:01;;;;;;;70.47;7.38;;;9.10;87.10;;;;;;6221936;23;20140;-87
2023/01/13 08:53:27;;;;;;;72.90;8.45;;;9.10;79.50;;;;;;6221567;23;20198;-89
2023/01/13 08:55:52;;;;;;;72.90;7.90;;;9.20;75.00;;;;;;6221814;23;20203;-87
2023/01/13 08:58:18;;;;;;;72.43;8.40;;;9.30;68.60;;;;;;6221235;23;20141;-87
2023/01/13 09:00:44;;;;;;;77.73;9.60;;;9.30;66.90;;;;;;6220937;23;20172;-88
2023/01/13 09:03:09;;;;;;;74.73;9.07;;;9.30;64.70;;;;;;6220857;23;20598;-89
2023/01/13 09:05:35;;;;;;;71.40;8.00;;;9.30;73.10;;;;;;6220316;23;20172;-88
2023/01/13 09:08:01;;;;;;;72.50;7.03;;;9.40;60.90;;;;;;6220525;23;20172;-88
2023/01/13 09:10:27;;;;;;;71.97;8.63;;;9.40;58.40;;;;;;6219268;23;20375;-89
2023/01/13 09:13:10;;;;;;;73.87;7.23;;;9.40;55.60;;;;;;6219363;23;20829;-88
2023/01/13 09:15:37;;;;;;;79.10;7.40;;;9.50;52.20;;;;;;6219800;23;20124;-87
2023/01/13 09:18:02;;;;;;;72.65;7.07;;;9.50;51.80;;;;;;6220969;23;20141;-88
2023/01/13 09:20:28;;;;;;;72.23;7.57;;;9.50;50.20;;;;;;6218684;23;20689;-88
2023/01/13 09:22:54;;;;;;;75.40;9.33;;;9.60;47.80;;;;;;6220430;23;20190;-88
2023/01/13 09:25:19;;;;;;;73.97;6.90;;;9.60;48.20;;;;;;6220160;23;20168;-88
2023/01/13 09:27:45;;;;;;;71.50;9.50;;;9.60;44.60;;;;;;6220994;23;20614;-87
2023/01/13 09:30:11;;;;;;;71.67;8.27;;;9.60;43.20;;;;;;6219632;23;20151;-87
2023/01/13 09:32:37;;;;;;;76.13;9.10;;;9.60;41.00;;;;;;6221808;23;20171;-88
2023/01/13 09:35:04;;;;;;;77.13;9.07;;;9.70;41.80;;;;;;6220056;23;20374;-88
2023/01/13 09:37:33;;;;;;;70.32;10.40;;;9.60;37.60;;;;;;6221275;23;20855;-88
2023/01/13 09:39:59;;;;;;;71.47;7.90;;;9.70;43.70;;;;;;6220741;23;20223;-88
2023/01/13 09:45:42;;;;;;;76.85;8.10;;;9.80;34.10;;;;;;6222054;23;20171;-88
2023/01/13 09:48:14;;;;;;;75.38;9.20;;;9.80;32.50;;;;;;6219776;23;20135;-87
2023/01/13 09:50:59;;;;;;;77.00;8.95;;;9.70;33.30;;;;;;6219960;23;20147;-88
2023/01/13 09:53:27;;;;;;;80.18;9.35;;;9.70;33.80;;;;;;6221715;23;20570;-87
2023/01/13 09:55:53;;;;;;;77.70;11.07;;;9.70;34.30;;;;;;6220650;23;20171;-88
2023/01/13 09:58:19;;;;;;;75.53;9.27;;;9.80;30.80;;;;;;6221776;23;20144;-87
2023/01/13 10:00:54;;;;;;;80.32;10.43;;;9.90;32.20;;;;;;6221315;23;20141;-87
2023/01/13 10:03:29;;;;;;;82.57;9.52;;;9.90;26.90;;;;;;6219071;23;20163;-87
2023/01/13 10:06:18;;;;;;;77.72;9.38;;;10.00;28.20;;;;;;6221576;23;20202;-87
2023/01/13 10:08:46;;;;;;;77.97;11.75;;;10.10;26.20;;;;;;6219710;23;20141;-86
2023/01/13 10:14:19;;;;;;;72.63;8.98;;;10.10;27.60;;;;;;6221760;23;20479;-86
2023/01/13 10:17:01;;;;;;;80.18;9.35;;;10.10;20.70;;;;;;6221966;23;20501;-87
2023/01/13 10:19:41;;;;;;;74.97;8.38;;;10.10;23.60;;;;;;6220628;23;20148;-87
2023/01/13 10:22:21;;;;;;;73.65;9.30;;;10.10;22.30;;;;;;6220731;23;20131;-87
2023/01/13 10:39:53;;;;;;;69.93;7.10;;;10.20;21.60;;;;;;6186057;23;20629;-91
2023/01/13 10:43:30;;;;;;;73.35;7.75;;;10.20;19.30;;;;;;6151054;23;20153;-89
2023/01/13 10:46:10;;;;;;;79.28;7.28;;;10.30;20.30;;;;;;6013671;23;20196;-90
2023/01/13 10:49:17;;;;;;;77.53;6.97;;;10.40;15.10;;;;;;6065791;23;20151;-89
2023/01/13 10:55:32;;;;;;;76.60;6.10;;;10.40;15.20;;;;;;6138551;23;20160;-90
2023/01/13 10:59:03;;;;;;;74.07;6.50;;;10.40;14.50;;;;;;6184324;23;20149;-90
2023/01/13 11:06:21;;;;;;;71.65;6.75;;;10.40;10.10;;;;;;6037578;23;20188;-90
2023/01/13 11:09:34;;;;;;;75.18;7.32;;;10.40;13.50;;;;;;6123334;23;20143;-90
2023/01/13 11:29:53;;;;;;;;;;;;;;;;;;;;;
2023/01/13 11:47:22;;;;;;;;;;;;;;;;;;;;;
2023/01/13 11:50:23;;;;;;;70.60;4.32;;;10.70;1.00;;;;;;5979685;24;20660;-89
2023/01/13 11:57:17;;;;;;;71.50;4.28;;;10.80;1.00;;;;;;5952547;24;20179;-89
2023/01/13 12:00:18;;;;;;;74.60;4.55;;;10.80;1.00;;;;;;5913846;24;20154;-89
2023/01/13 12:03:37;;;;;;;72.45;3.67;;;10.80;1.00;;;;;;5913529;24;20631;-89
2023/01/13 12:13:52;;;;;;;73.25;4.75;;;10.70;1.00;;;;;;5924590;24;20212;-89
2023/01/13 12:17:04;;;;;;;71.30;3.97;;;10.80;1.00;;;;;;5924656;24;20263;-89
2023/01/13 12:23:28;;;;;;;70.30;3.92;;;10.80;1.00;;;;;;6047781;23;20217;-89
2023/01/13 12:26:53;;;;;;;72.40;3.78;;;10.70;1.00;;;;;;6100230;23;20222;-89
2023/01/13 12:29:54;;;;;;;70.55;4.75;;;10.70;1.00;;;;;;6101190;23;20142;-89
2023/01/13 12:33:19;;;;;;;78.95;6.20;;;10.60;11.10;;;;;;6182569;23;20149;-89
2023/01/13 12:51:27;;;;;;;70.68;6.20;;;10.40;26.30;;;;;;6216812;22;20192;-89
2023/01/13 12:54:11;;;;;;;69.05;5.93;;;10.40;28.80;;;;;;6186964;23;20141;-89
2023/01/13 13:00:49;;;;;;;79.40;6.25;;;10.40;33.70;;;;;;6067740;23;20163;-90
2023/01/13 13:03:58;;;;;;;73.55;6.72;;;10.30;33.50;;;;;;6189840;23;20156;-90
2023/01/13 13:07:02;;;;;;;69.07;7.28;;;10.30;33.80;;;;;;6188758;23;20191;-90
2023/01/13 13:10:16;;;;;;;72.88;7.75;;;10.30;29.20;;;;;;6218250;23;20148;-87
2023/01/13 13:13:31;;;;;;;79.18;10.93;;;10.30;49.30;;;;;;6189488;23;20605;-89
2023/01/13 13:16:28;;;;;;;73.38;10.20;;;10.10;75.00;;;;;;6190523;23;20168;-90
2023/01/13 13:19:32;;;;;;;;;;;;;;;;;;;;;
2023/01/13 13:28:53;;;;;;;76.60;12.98;;;9.60;99.90;;;;;;6215362;23;20175;-90
2023/01/13 13:35:32;;;;;;;82.07;27.25;;;9.50;99.90;;;;;;6164592;23;20199;-90
2023/01/13 13:48:44;;;;;;;81.57;36.35;;;9.30;99.90;;;;;;6056073;23;20637;-90
2023/01/13 13:56:02;;;;;;;84.47;50.08;;;9.20;99.90;;;;;;5926171;24;20243;-90
2023/01/13 13:59:23;;;;;;;85.30;45.85;;;9.20;99.90;;;;;;5923898;24;20689;-90
2023/01/13 14:11:16;;;;;;;91.78;35.17;;;9.10;99.90;;;;;;6216680;23;20195;-89
2023/01/13 14:25:16;;;;;;;82.15;48.92;;;9.20;99.90;;;;;;6059955;23;20148;-89
2023/01/13 14:28:08;;;;;;;87.03;45.53;;;9.20;99.90;;;;;;6065452;23;20762;-89
2023/01/13 14:31:03;;;;;;;85.05;41.15;;;9.20;99.90;;;;;;6162270;23;20180;-89
2023/01/13 14:33:56;;;;;;;84.18;38.13;;;9.30;99.90;;;;;;6189128;23;20172;-89
2023/01/13 14:36:50;;;;;;;84.80;56.85;;;9.20;99.90;;;;;;6186265;23;20189;-90
2023/01/13 14:39:34;;;;;;;86.13;40.33;;;9.20;99.90;;;;;;6189889;23;20232;-89
2023/01/13 14:42:40;;;;;;;;;;;;;;;;;;;;;
2023/01/13 14:48:39;;;;;;;;;;;;;;;;;;;;;
2023/01/13 14:57:53;;;;;;;86.57;33.78;;;9.20;99.90;;;;;;6051240;23;20168;-89
2023/01/13 15:00:50;;;;;;;86.70;39.50;;;9.20;99.90;;;;;;6045362;23;20148;-89
2023/01/13 15:03:22;;;;;;;80.60;40.10;;;9.20;99.90;;;;;;6103787;23;20592;-89
2023/01/13 15:05:52;;;;;;;80.75;36.15;;;9.20;99.90;;;;;;6188734;23;20187;-89
2023/01/13 15:08:25;;;;;;;83.18;31.25;;;9.20;99.90;;;;;;6190285;23;20570;-89
2023/01/13 15:11:04;;;;;;;83.47;35.03;;;9.20;99.90;;;;;;6189680;23;20149;-90
2023/01/13 15:13:47;;;;;;;80.32;35.15;;;9.20;99.90;;;;;;6190203;23;20144;-90
2023/01/13 15:19:32;;;;;;;80.75;27.83;;;9.20;99.90;;;;;;6164731;23;20152;-89
2023/01/13 15:22:07;;;;;;;80.40;26.15;;;9.20;99.90;;;;;;6188678;23;20717;-89
2023/01/13 15:24:46;;;;;;;87.72;27.20;;;9.20;99.90;;;;;;6186685;23;20148;-90
2023/01/13 15:28:00;;;;;;;77.03;24.70;;;9.20;99.90;;;;;;6188536;23;20179;-89
2023/01/13 15:30:49;;;;;;;75.40;17.45;;;9.20;99.90;;;;;;6207591;23;20140;-89
2023/01/13 15:33:33;;;;;;;77.03;25.65;;;9.20;99.90;;;;;;6172122;23;20153;-89
2023/01/13 15:36:20;;;;;;;78.20;27.05;;;9.10;99.90;;;;;;6189553;23;20255;-89
2023/01/13 15:38:46;;;;;;;79.60;21.00;;;9.10;99.90;;;;;;6183222;23;20611;-89
2023/01/13 15:48:17;;;;;;;76.82;21.27;;;9.20;99.90;;;;;;6215183;23;20175;-89
2023/01/13 15:51:31;;;;;;;82.28;23.33;;;9.20;99.90;;;;;;6215535;23;20125;-89
2023/01/13 15:54:13;;;;;;;81.80;25.67;;;9.20;99.90;;;;;;6205480;23;20152;-89
2023/01/13 15:56:52;;;;;;;81.97;30.40;;;9.10;99.90;;;;;;6190328;23;20172;-89
2023/01/13 15:59:29;;;;;;;82.82;25.40;;;9.20;99.90;;;;;;6217715;23;20485;-89
2023/01/13 16:02:21;;;;;;;;;;;;;;;;;;;;;
2023/01/13 16:05:13;;;;;;;87.93;36.25;;;9.20;99.90;;;;;;6217455;23;20224;-89
2023/01/13 16:07:43;;;;;;;89.53;37.67;;;9.10;99.90;;;;;;6190824;23;20165;-89
2023/01/13 16:10:25;;;;;;;86.80;35.65;;;9.10;99.90;;;;;;6190398;23;20152;-89
2023/01/13 16:12:58;;;;;;;83.22;33.67;;;9.10;99.90;;;;;;6190919;23;20231;-89
2023/01/13 16:15:24;;;;;;;89.35;34.88;;;9.10;99.90;;;;;;6191141;23;20152;-89
2023/01/13 16:17:56;;;;;;;88.47;37.25;;;9.10;99.90;;;;;;6190937;23;20148;-89
2023/01/13 16:20:30;;;;;;;91.00;40.80;;;9.00;99.90;;;;;;6190742;23;20179;-88
2023/01/13 16:23:02;;;;;;;80.35;39.03;;;9.00;99.90;;;;;;6191598;23;20448;-89
2023/01/13 16:25:27;;;;;;;86.70;39.28;;;9.00;99.90;;;;;;6227676;22;20192;-85
2023/01/13 16:27:54;;;;;;;84.03;34.90;;;9.00;99.90;;;;;;6203779;23;20156;-87
2023/01/13 16:30:27;;;;;;;84.15;36.03;;;9.00;99.90;;;;;;6200937;23;20231;-88
2023/01/13 16:32:54;;;;;;;90.93;44.05;;;9.00;99.90;;;;;;6228188;23;20129;-88
2023/01/13 16:35:30;;;;;;;89.93;33.53;;;9.00;99.90;;;;;;6202250;23;20156;-87
2023/01/13 16:38:40;;;;;;;84.78;34.03;;;9.00;99.90;;;;;;6200816;23;20144;-88
2023/01/13 16:41:47;;;;;;;82.97;29.95;;;9.00;99.90;;;;;;6201463;23;20651;-87
2023/01/13 16:47:52;;;;;;;95.22;32.85;;;9.00;99.90;;;;;;6119958;23;20160;-86